createdAt,value
2022-11-30T00:00:29.469Z,100350.03
2022-11-30T00:02:57.329Z,100350.03
2022-11-30T00:05:25.325Z,100353.59
2022-11-30T00:07:54.653Z,100356.19
2022-11-30T00:10:22.314Z,100353.53
2022-11-30T00:12:50.287Z,100356.09
2022-11-30T00:15:18.307Z,100357.03
2022-11-30T00:17:45.969Z,100355.34
2022-11-30T00:20:13.587Z,100359.78
2022-11-30T00:22:41.252Z,100354.47
2022-11-30T00:25:08.960Z,100359.69
2022-11-30T00:27:36.847Z,100360.66
2022-11-30T00:30:04.470Z,100349.16
2022-11-30T00:32:32.146Z,100353.59
2022-11-30T00:34:59.779Z,100351.81
2022-11-30T00:37:28.972Z,100357.22
2022-11-30T00:39:56.603Z,100355.44
2022-11-30T00:42:24.229Z,100354.56
2022-11-30T00:44:51.777Z,100359.88
2022-11-30T00:47:19.429Z,100358.19
2022-11-30T00:49:50.597Z,100354.78
2022-11-30T00:52:18.194Z,100356.69
2022-11-30T00:54:46.184Z,100353.16
2022-11-30T00:57:14.023Z,100354.97
2022-11-30T00:59:41.624Z,100348.91
2022-11-30T01:02:11.540Z,100347.13
2022-11-30T01:04:39.198Z,100337.34
2022-11-30T01:07:06.853Z,100345.41
2022-11-30T01:09:34.473Z,100350.72
2022-11-30T01:12:02.356Z,100344.56
2022-11-30T01:14:30.263Z,100352.59
2022-11-30T01:16:57.894Z,100360.69
2022-11-30T01:19:25.477Z,100361.63
2022-11-30T01:21:53.040Z,100359.16
2022-11-30T01:24:20.648Z,100361.81
2022-11-30T01:26:49.058Z,100356.50
2022-11-30T01:29:16.663Z,100361.91
2022-11-30T01:31:44.273Z,100366.38
2022-11-30T01:34:12.124Z,100367.34
2022-11-30T01:36:39.694Z,100370.00
2022-11-30T01:39:07.637Z,100367.34
2022-11-30T01:41:35.219Z,100358.41
2022-11-30T01:44:02.828Z,100360.13
2022-11-30T01:46:30.534Z,100366.28
2022-11-30T01:48:58.233Z,100371.47
2022-11-30T01:51:26.142Z,100371.47
2022-11-30T01:53:53.757Z,100367.88
2022-11-30T01:56:21.608Z,100367.88
2022-11-30T01:58:49.177Z,100379.34
2022-11-30T02:01:16.925Z,100372.34
2022-11-30T02:03:46.265Z,100368.81
2022-11-30T02:06:13.849Z,100375.94
2022-11-30T02:08:41.472Z,100369.78
2022-11-30T02:11:09.067Z,100368.94
2022-11-30T02:13:36.622Z,100368.94
2022-11-30T02:16:04.765Z,100361.81
2022-11-30T02:18:32.565Z,100363.53
2022-11-30T02:21:00.278Z,100365.34
2022-11-30T02:23:28.008Z,100355.75
2022-11-30T02:25:55.653Z,100358.41
2022-11-30T02:28:24.150Z,100355.75
2022-11-30T02:30:51.846Z,100352.16
2022-11-30T02:33:19.494Z,100355.75
2022-11-30T02:35:50.352Z,100343.34
2022-11-30T02:38:22.019Z,100358.41
2022-11-30T02:40:53.106Z,100350.47
2022-11-30T02:43:20.682Z,100352.25
2022-11-30T02:45:48.382Z,100350.47
2022-11-30T02:48:15.924Z,100348.63
2022-11-30T02:50:43.482Z,100358.41
2022-11-30T02:53:13.753Z,100362.78
2022-11-30T02:55:41.348Z,100359.16
2022-11-30T02:58:08.956Z,100362.78
2022-11-30T03:00:36.576Z,100364.47
2022-11-30T03:03:10.415Z,100365.44
2022-11-30T03:05:40.125Z,100366.38
2022-11-30T03:08:07.704Z,100361.06
2022-11-30T03:10:35.290Z,100367.44
2022-11-30T03:13:02.880Z,100371.03
2022-11-30T03:15:30.459Z,100371.88
2022-11-30T03:17:58.333Z,100384.38
2022-11-30T03:20:25.965Z,100380.78
2022-11-30T03:22:53.557Z,100371.13
2022-11-30T03:25:21.384Z,100380.03
2022-11-30T03:27:49.004Z,100376.63
2022-11-30T03:30:18.450Z,100374.16
2022-11-30T03:32:46.074Z,100385.94
2022-11-30T03:35:13.675Z,100384.41
2022-11-30T03:37:41.235Z,100383.66
2022-11-30T03:40:08.775Z,100382.13
2022-11-30T03:42:37.313Z,100386.66
2022-11-30T03:45:04.859Z,100387.59
2022-11-30T03:47:32.406Z,100388.56
2022-11-30T03:49:59.990Z,100391.22
2022-11-30T03:52:27.541Z,100396.72
2022-11-30T03:54:55.470Z,100403.88
2022-11-30T03:57:23.082Z,100401.66
2022-11-30T03:59:50.745Z,100399.38
2022-11-30T04:02:18.281Z,100403.25
2022-11-30T04:04:46.138Z,100404.56
2022-11-30T04:07:14.641Z,100413.84
2022-11-30T04:09:42.493Z,100411.63
2022-11-30T04:12:10.138Z,100417.13
2022-11-30T04:14:37.692Z,100414.66
2022-11-30T04:17:05.274Z,100417.41
2022-11-30T04:19:32.920Z,100423.00
2022-11-30T04:22:00.481Z,100427.63
2022-11-30T04:24:28.043Z,100416.34
2022-11-30T04:26:55.646Z,100421.72
2022-11-30T04:29:23.236Z,100427.13
2022-11-30T04:31:54.331Z,100422.75
2022-11-30T04:34:21.939Z,100419.34
2022-11-30T04:36:49.518Z,100418.59
2022-11-30T04:39:17.092Z,100427.38
2022-11-30T04:41:44.725Z,100433.63
2022-11-30T04:44:12.625Z,100434.59
2022-11-30T04:46:40.225Z,100439.13
2022-11-30T04:49:08.087Z,100432.97
2022-11-30T04:51:35.670Z,100433.84
2022-11-30T04:54:03.679Z,100436.56
2022-11-30T04:56:32.385Z,100434.78
2022-11-30T04:58:59.925Z,100442.81
2022-11-30T05:01:27.509Z,100438.44
2022-11-30T05:03:55.262Z,100442.88
2022-11-30T05:06:22.877Z,100446.28
2022-11-30T05:08:51.818Z,100437.44
2022-11-30T05:11:19.745Z,100439.22
2022-11-30T05:13:47.343Z,100437.59
2022-11-30T05:16:14.953Z,100435.88
2022-11-30T05:18:42.705Z,100444.59
2022-11-30T05:21:10.642Z,100448.03
2022-11-30T05:23:38.205Z,100448.03
2022-11-30T05:26:05.848Z,100449.81
2022-11-30T05:28:33.498Z,100454.22
2022-11-30T05:31:01.138Z,100454.34
2022-11-30T05:33:29.748Z,100458.78
2022-11-30T05:35:57.334Z,100451.69
2022-11-30T05:38:25.190Z,100453.41
2022-11-30T05:40:52.842Z,100455.19
2022-11-30T05:43:20.422Z,100454.34
2022-11-30T05:45:48.256Z,100459.66
2022-11-30T05:48:15.965Z,100455.28
2022-11-30T05:50:43.540Z,100454.44
2022-11-30T05:53:11.114Z,100449.13
2022-11-30T05:55:38.740Z,100454.50
2022-11-30T05:58:06.918Z,100454.63
2022-11-30T06:00:34.835Z,100452.88
2022-11-30T06:03:02.625Z,100461.88
2022-11-30T06:05:30.355Z,100455.81
2022-11-30T06:07:58.008Z,100454.22
2022-11-30T06:10:27.930Z,100456.06
2022-11-30T06:12:55.542Z,100458.81
2022-11-30T06:15:23.178Z,100451.78
2022-11-30T06:17:50.867Z,100448.38
2022-11-30T06:20:18.501Z,100450.28
2022-11-30T06:22:49.411Z,100447.63
2022-11-30T06:25:17.103Z,100446.78
2022-11-30T06:27:44.928Z,100447.63
2022-11-30T06:30:12.580Z,100455.50
2022-11-30T06:32:40.299Z,100453.69
2022-11-30T06:35:08.236Z,100451.78
2022-11-30T06:37:36.174Z,100454.56
2022-11-30T06:40:07.111Z,100457.97
2022-11-30T06:42:35.326Z,100458.81
2022-11-30T06:45:02.963Z,100458.81
2022-11-30T06:47:31.214Z,100464.13
2022-11-30T06:49:58.812Z,100464.13
2022-11-30T06:52:26.475Z,100462.31
2022-11-30T06:54:54.121Z,100468.38
2022-11-30T06:57:21.856Z,100463.94
2022-11-30T06:59:49.870Z,100460.34
2022-11-30T07:02:18.714Z,100459.41
2022-11-30T07:04:47.323Z,100470.66
2022-11-30T07:07:15.168Z,100469.63
2022-11-30T07:09:42.938Z,100468.69
2022-11-30T07:12:12.340Z,100470.41
2022-11-30T07:14:39.971Z,100479.22
2022-11-30T07:17:07.771Z,100479.13
2022-11-30T07:19:35.712Z,100480.91
2022-11-30T07:22:03.516Z,100489.53
2022-11-30T07:24:49.640Z,100485.94
2022-11-30T07:27:18.419Z,100490.13
2022-11-30T07:29:48.924Z,100488.25
2022-11-30T07:32:16.733Z,100489.06
2022-11-30T07:34:44.661Z,100502.31
2022-11-30T07:37:12.835Z,100496.88
2022-11-30T07:39:41.156Z,100497.69
2022-11-30T07:42:08.886Z,100500.28
2022-11-30T07:44:36.727Z,100502.84
2022-11-30T07:47:04.499Z,100508.16
2022-11-30T07:49:32.532Z,100514.28
2022-11-30T07:52:00.908Z,100517.03
2022-11-30T07:54:28.725Z,100515.34
2022-11-30T07:56:56.382Z,100517.88
2022-11-30T07:59:24.135Z,100510.03
2022-11-30T08:01:51.996Z,100513.53
2022-11-30T08:04:20.335Z,100523.16
2022-11-30T08:06:48.129Z,100516.94
2022-11-30T08:09:20.548Z,100522.22
2022-11-30T08:11:48.804Z,100523.97
2022-11-30T08:14:16.961Z,100519.41
2022-11-30T08:16:44.924Z,100527.25
2022-11-30T08:19:12.829Z,100532.47
2022-11-30T08:21:40.616Z,100530.69
2022-11-30T08:24:08.544Z,100529.66
2022-11-30T08:26:36.905Z,100526.91
2022-11-30T08:29:05.398Z,100529.56
2022-11-30T08:31:33.487Z,100526.91
2022-11-30T08:34:01.327Z,100531.19
2022-11-30T08:36:29.142Z,100528.44
2022-11-30T08:38:57.230Z,100529.28
2022-11-30T08:41:26.687Z,100531.84
2022-11-30T08:43:54.501Z,100533.56
2022-11-30T08:49:25.788Z,100540.47
2022-11-30T08:54:47.040Z,100541.34
2022-11-30T08:57:15.453Z,100543.13
2022-11-30T08:59:43.803Z,100542.25
2022-11-30T09:02:14.439Z,100550.13
2022-11-30T09:04:42.269Z,100555.44
2022-11-30T09:07:10.094Z,100553.47
2022-11-30T09:09:38.329Z,100553.47
2022-11-30T09:12:06.761Z,100559.44
2022-11-30T09:14:36.629Z,100553.94
2022-11-30T09:17:04.872Z,100555.56
2022-11-30T09:19:32.702Z,100560.59
2022-11-30T09:22:00.738Z,100567.53
2022-11-30T09:24:28.737Z,100561.19
2022-11-30T09:26:57.912Z,100561.88
2022-11-30T09:29:25.664Z,100563.56
2022-11-30T09:31:53.488Z,100560.84
2022-11-30T09:34:21.482Z,100559.97
2022-11-30T09:36:50.148Z,100564.31
2022-11-30T09:39:18.072Z,100558.28
2022-11-30T09:41:46.132Z,100568.97
2022-11-30T09:44:14.080Z,100569.91
2022-11-30T09:46:42.113Z,100562.06
2022-11-30T09:49:10.475Z,100565.56
2022-11-30T09:51:39.455Z,100563.00
2022-11-30T09:54:09.148Z,100563.84
2022-11-30T09:56:37.503Z,100563.84
2022-11-30T09:59:05.515Z,100567.44
2022-11-30T10:01:37.647Z,100569.06
2022-11-30T10:04:05.859Z,100565.38
2022-11-30T10:06:33.559Z,100568.72
2022-11-30T10:09:01.504Z,100560.75
2022-11-30T10:11:29.394Z,100554.50
2022-11-30T10:13:57.985Z,100559.63
2022-11-30T10:16:26.110Z,100559.63
2022-11-30T10:18:54.056Z,100554.31
2022-11-30T10:21:21.899Z,100557.84
2022-11-30T10:23:50.981Z,100556.22
2022-11-30T10:26:18.934Z,100557.91
2022-11-30T10:28:48.105Z,100564.91
2022-11-30T10:31:16.553Z,100556.22
2022-11-30T10:33:44.578Z,100558.84
2022-11-30T10:36:12.522Z,100561.31
2022-11-30T10:38:40.765Z,100560.38
2022-11-30T10:41:10.775Z,100556.97
2022-11-30T10:43:39.027Z,100559.53
2022-11-30T10:46:08.517Z,100557.63
2022-11-30T10:48:38.022Z,100558.59
2022-11-30T10:51:06.441Z,100561.16
2022-11-30T10:53:34.557Z,100551.56
2022-11-30T10:56:02.302Z,100547.09
2022-11-30T10:58:30.187Z,100554.16
2022-11-30T11:00:58.160Z,100548.84
2022-11-30T11:03:26.421Z,100547.97
2022-11-30T11:05:54.315Z,100540.03
2022-11-30T11:08:22.390Z,100537.38
2022-11-30T11:10:52.023Z,100539.06
2022-11-30T11:13:19.934Z,100544.19
2022-11-30T11:15:48.478Z,100537.16
2022-11-30T11:18:17.555Z,100541.53
2022-11-30T11:20:45.470Z,100542.38
2022-11-30T11:23:13.371Z,100551.22
2022-11-30T11:25:43.403Z,100537.84
2022-11-30T11:28:11.537Z,100550.16
2022-11-30T11:30:41.381Z,100544.97
2022-11-30T11:33:09.357Z,100546.75
2022-11-30T11:35:37.214Z,100549.31
2022-11-30T11:38:05.625Z,100550.28
2022-11-30T11:40:33.858Z,100547.69
2022-11-30T11:43:04.396Z,100547.63
2022-11-30T11:45:32.562Z,100550.28
2022-11-30T11:48:00.475Z,100547.63
2022-11-30T11:51:04.438Z,100544.97
2022-11-30T11:53:23.616Z,100547.63
2022-11-30T11:55:51.600Z,100546.00
2022-11-30T11:58:19.455Z,100549.59
2022-11-30T12:00:48.773Z,100554.97
2022-11-30T12:03:16.790Z,100565.41
2022-11-30T12:08:54.375Z,100558.31
2022-11-30T12:11:22.305Z,100559.25
2022-11-30T12:13:50.489Z,100558.59
2022-11-30T12:16:20.218Z,100555.19
2022-11-30T12:18:48.158Z,100566.81
2022-11-30T12:21:15.996Z,100565.19
2022-11-30T12:23:43.829Z,100565.28
2022-11-30T12:26:11.861Z,100568.03
2022-11-30T12:28:39.785Z,100564.53
2022-11-30T12:31:10.991Z,100570.56
2022-11-30T12:33:39.324Z,100563.50
2022-11-30T12:36:07.286Z,100565.19
2022-11-30T12:38:35.259Z,100563.56
2022-11-30T12:41:03.063Z,100564.53
2022-11-30T12:43:31.405Z,100561.88
2022-11-30T12:45:59.873Z,100566.31
2022-11-30T12:48:27.693Z,100572.56
2022-11-30T12:50:55.538Z,100573.44
2022-11-30T12:53:23.892Z,100576.91
2022-11-30T12:55:51.942Z,100577.84
2022-11-30T12:58:20.171Z,100580.50
2022-11-30T13:00:48.157Z,100583.28
2022-11-30T13:03:16.061Z,100581.56
2022-11-30T13:05:43.935Z,100577.31
2022-11-30T13:08:12.263Z,100581.72
2022-11-30T13:10:40.091Z,100579.94
2022-11-30T13:13:07.906Z,100572.00
2022-11-30T13:15:37.029Z,100576.34
2022-11-30T13:18:05.216Z,100577.19
2022-11-30T13:20:33.101Z,100580.72
2022-11-30T13:23:01.560Z,100579.84
2022-11-30T13:26:05.702Z,100579.84
2022-11-30T13:28:18.160Z,100577.19
2022-11-30T13:30:46.065Z,100577.03
2022-11-30T13:33:14.484Z,100570.97
2022-11-30T13:35:43.179Z,100574.44
2022-11-30T13:38:35.863Z,100574.25
2022-11-30T13:40:58.988Z,100578.72
2022-11-30T13:43:27.080Z,100578.81
2022-11-30T13:45:55.164Z,100578.91
2022-11-30T13:48:23.176Z,100577.97
2022-11-30T13:50:51.087Z,100583.28
2022-11-30T13:53:19.996Z,100580.50
2022-11-30T13:55:48.603Z,100581.38
2022-11-30T13:58:16.873Z,100579.69
2022-11-30T14:00:44.742Z,100583.34
2022-11-30T14:03:12.796Z,100582.50
2022-11-30T14:05:40.711Z,100580.78
2022-11-30T14:08:10.590Z,100578.06
2022-11-30T14:10:38.576Z,100579.84
2022-11-30T14:13:06.466Z,100587.03
2022-11-30T14:15:34.645Z,100584.56
2022-11-30T14:18:03.804Z,100589.09
2022-11-30T14:20:37.383Z,100587.50
2022-11-30T14:23:05.932Z,100592.69
2022-11-30T14:25:33.789Z,100591.00
2022-11-30T14:28:01.644Z,100594.59
2022-11-30T14:30:29.672Z,100598.19
2022-11-30T14:32:58.075Z,100593.81
2022-11-30T14:35:25.992Z,100600.06
2022-11-30T14:37:54.060Z,100596.38
2022-11-30T14:40:22.348Z,100608.78
2022-11-30T14:42:50.203Z,100593.72
2022-11-30T14:45:18.623Z,100600.84
2022-11-30T14:47:48.223Z,100598.94
2022-11-30T14:50:16.247Z,100604.25
2022-11-30T14:52:44.454Z,100610.50
2022-11-30T14:55:13.994Z,100607.09
2022-11-30T14:57:42.833Z,100611.50
2022-11-30T15:00:10.883Z,100618.63
2022-11-30T15:02:39.160Z,100615.19
2022-11-30T15:05:07.188Z,100615.31
2022-11-30T15:07:37.070Z,100618.03
2022-11-30T15:10:05.430Z,100616.31
2022-11-30T15:12:33.286Z,100611.19
2022-11-30T15:15:01.352Z,100614.78
2022-11-30T15:17:29.296Z,100616.47
2022-11-30T15:19:58.533Z,100613.06
2022-11-30T15:22:27.211Z,100606.16
2022-11-30T15:24:55.410Z,100615.16
2022-11-30T15:27:23.240Z,100608.22
2022-11-30T15:29:51.316Z,100618.91
2022-11-30T15:32:20.814Z,100616.34
2022-11-30T15:34:54.893Z,100620.78
2022-11-30T15:37:24.354Z,100618.22
2022-11-30T15:39:52.568Z,100620.94
2022-11-30T15:42:20.464Z,100621.81
2022-11-30T15:44:49.357Z,100622.66
2022-11-30T15:47:17.191Z,100628.81
2022-11-30T15:49:45.254Z,100627.03
2022-11-30T15:52:13.373Z,100623.53
2022-11-30T15:54:41.901Z,100627.13
2022-11-30T15:57:10.391Z,100632.41
2022-11-30T15:59:38.415Z,100631.53
2022-11-30T16:02:08.993Z,100628.13
2022-11-30T16:04:36.888Z,100630.88
2022-11-30T16:07:08.392Z,100637.03
2022-11-30T16:09:36.835Z,100632.50
2022-11-30T16:12:04.694Z,100638.56
2022-11-30T16:14:32.670Z,100634.13
2022-11-30T16:17:04.197Z,100632.41
2022-11-30T16:19:38.183Z,100643.84
2022-11-30T16:22:06.046Z,100643.03
2022-11-30T16:24:33.863Z,100648.31
2022-11-30T16:27:01.818Z,100644.97
2022-11-30T16:29:29.677Z,100648.66
2022-11-30T16:31:58.307Z,100635.47
2022-11-30T16:34:26.188Z,100635.47
2022-11-30T16:36:54.000Z,100641.72
2022-11-30T16:39:21.914Z,100645.25
2022-11-30T16:41:49.875Z,100645.25
2022-11-30T16:44:19.163Z,100655.84
2022-11-30T16:46:47.016Z,100654.97
2022-11-30T16:49:15.037Z,100662.91
2022-11-30T16:51:43.162Z,100662.84
2022-11-30T16:54:10.974Z,100665.56
2022-11-30T16:56:39.264Z,100660.38
2022-11-30T16:59:12.062Z,100664.88
2022-11-30T17:01:43.439Z,100667.72
2022-11-30T17:04:11.323Z,100671.19
2022-11-30T17:06:39.313Z,100665.91
2022-11-30T17:09:07.812Z,100672.94
2022-11-30T17:11:35.656Z,100672.06
2022-11-30T17:14:03.522Z,100668.56
2022-11-30T17:16:31.571Z,100665.06
2022-11-30T17:19:01.378Z,100670.44
2022-11-30T17:21:29.236Z,100677.56
2022-11-30T17:23:57.364Z,100676.75
2022-11-30T17:26:25.107Z,100681.22
2022-11-30T17:28:52.902Z,100680.34
2022-11-30T17:31:21.725Z,100690.09
2022-11-30T17:33:49.771Z,100690.19
2022-11-30T17:36:18.935Z,100688.47
2022-11-30T17:38:47.060Z,100697.25
2022-11-30T17:41:18.899Z,100696.44
2022-11-30T17:43:49.692Z,100703.50
2022-11-30T17:46:17.684Z,100692.91
2022-11-30T17:48:45.642Z,100702.56
2022-11-30T17:51:13.758Z,100700.78
2022-11-30T17:53:41.842Z,100702.66
2022-11-30T17:56:10.225Z,100707.09
2022-11-30T17:58:43.313Z,100707.16
2022-11-30T18:01:11.531Z,100709.06
2022-11-30T18:03:39.598Z,100715.22
2022-11-30T18:06:07.520Z,100709.13
2022-11-30T18:08:35.573Z,100725.81
2022-11-30T18:11:03.566Z,100723.16
2022-11-30T18:13:31.776Z,100722.28
2022-11-30T18:15:59.554Z,100725.88
2022-11-30T18:18:27.664Z,100727.59
2022-11-30T18:20:56.214Z,100723.06
2022-11-30T18:23:24.004Z,100723.94
2022-11-30T18:25:52.045Z,100725.72
2022-11-30T18:28:19.884Z,100729.22
2022-11-30T18:30:47.713Z,100728.34
2022-11-30T18:33:16.177Z,100736.41
2022-11-30T18:35:44.385Z,100739.13
2022-11-30T18:38:12.168Z,100735.59
2022-11-30T18:40:40.140Z,100738.25
2022-11-30T18:43:08.014Z,100736.47
2022-11-30T18:45:39.153Z,100732.06
2022-11-30T18:48:07.606Z,100732.81
2022-11-30T18:50:35.506Z,100739.81
2022-11-30T18:53:03.351Z,100742.47
2022-11-30T18:55:31.197Z,100742.47
2022-11-30T18:58:02.976Z,100732.06
2022-11-30T19:00:30.797Z,100743.56
2022-11-30T19:02:58.741Z,100747.06
2022-11-30T19:05:36.619Z,100740.06
2022-11-30T19:08:07.414Z,100741.84
2022-11-30T19:10:35.530Z,100733.91
2022-11-30T19:13:04.205Z,100744.50
2022-11-30T19:15:32.302Z,100741.94
2022-11-30T19:18:00.037Z,100740.13
2022-11-30T19:20:29.547Z,100744.50
2022-11-30T19:22:57.554Z,100745.38
2022-11-30T19:25:25.420Z,100742.78
2022-11-30T19:27:53.269Z,100747.25
2022-11-30T19:30:21.264Z,100742.78
2022-11-30T19:32:50.025Z,100748.19
2022-11-30T19:35:17.889Z,100747.41
2022-11-30T19:37:45.880Z,100751.84
2022-11-30T19:40:15.017Z,100749.28
2022-11-30T19:42:42.876Z,100752.09
2022-11-30T19:45:11.568Z,100750.47
2022-11-30T19:47:39.399Z,100751.31
2022-11-30T19:50:07.185Z,100747.72
2022-11-30T19:52:35.225Z,100752.09
2022-11-30T19:55:03.060Z,100753.81
2022-11-30T19:57:32.446Z,100763.59
2022-11-30T20:00:00.260Z,100756.53
2022-11-30T20:02:28.430Z,100765.25
2022-11-30T20:04:56.297Z,100759.94
2022-11-30T20:07:24.351Z,100772.25
2022-11-30T20:09:54.794Z,100769.59
2022-11-30T20:12:22.683Z,100766.88
2022-11-30T20:14:51.333Z,100776.63
2022-11-30T20:17:19.189Z,100770.41
2022-11-30T20:19:47.005Z,100780.13
2022-11-30T20:22:16.792Z,100776.63
2022-11-30T20:24:44.851Z,100776.63
2022-11-30T20:27:12.648Z,100785.47
2022-11-30T20:29:40.578Z,100773.19
2022-11-30T20:32:08.529Z,100776.63
2022-11-30T20:34:43.476Z,100774.06
2022-11-30T20:37:11.713Z,100779.50
2022-11-30T20:39:45.355Z,100780.53
2022-11-30T20:42:13.807Z,100778.72
2022-11-30T20:44:42.978Z,100786.75
2022-11-30T20:47:11.519Z,100785.97
2022-11-30T20:49:39.438Z,100782.56
2022-11-30T20:52:08.995Z,100784.44
2022-11-30T20:54:36.775Z,100788.03
2022-11-30T20:57:05.788Z,100785.38
2022-11-30T20:59:34.667Z,100783.56
2022-11-30T21:02:02.699Z,100789.63
2022-11-30T21:04:30.722Z,100778.19
2022-11-30T21:06:58.803Z,100789.56
2022-11-30T21:09:27.126Z,100783.31
2022-11-30T21:11:55.233Z,100779.59
2022-11-30T21:14:23.143Z,100786.59
2022-11-30T21:16:51.069Z,100787.38
2022-11-30T21:19:19.191Z,100784.72
2022-11-30T21:21:48.889Z,100790.00
2022-11-30T21:24:16.757Z,100787.44
2022-11-30T21:26:44.658Z,100793.66
2022-11-30T21:29:12.877Z,100784.97
2022-11-30T21:31:40.731Z,100792.97
2022-11-30T21:34:11.029Z,100794.69
2022-11-30T21:36:38.895Z,100790.44
2022-11-30T21:39:07.811Z,100797.50
2022-11-30T21:41:35.725Z,100791.38
2022-11-30T21:44:03.503Z,100794.84
2022-11-30T21:46:33.132Z,100797.56
2022-11-30T21:49:01.432Z,100791.44
2022-11-30T21:51:29.476Z,100798.44
2022-11-30T21:53:57.320Z,100801.09
2022-11-30T21:56:25.358Z,100807.16
2022-11-30T21:58:53.482Z,100800.09
2022-11-30T22:01:21.299Z,100797.44
2022-11-30T22:03:49.307Z,100788.53
2022-11-30T22:06:17.127Z,100790.25
2022-11-30T22:08:44.959Z,100790.25
2022-11-30T22:11:14.379Z,100785.03
2022-11-30T22:13:42.537Z,100784.09
2022-11-30T22:16:10.479Z,100786.91
2022-11-30T22:18:38.514Z,100787.78
2022-11-30T22:21:06.427Z,100782.56
2022-11-30T22:23:34.723Z,100785.97
2022-11-30T22:26:02.682Z,100780.69
2022-11-30T22:28:30.597Z,100785.19
2022-11-30T22:30:58.336Z,100783.44
2022-11-30T22:33:26.247Z,100785.19
2022-11-30T22:35:54.648Z,100789.72
2022-11-30T22:38:22.551Z,100789.78
2022-11-30T22:40:50.312Z,100790.88
2022-11-30T22:43:18.113Z,100791.03
2022-11-30T22:45:46.016Z,100785.06
2022-11-30T22:48:15.785Z,100783.34
2022-11-30T22:50:43.559Z,100793.94
2022-11-30T22:53:11.385Z,100783.34
2022-11-30T22:55:41.618Z,100793.94
2022-11-30T22:58:13.609Z,100787.69
2022-11-30T23:00:44.153Z,100789.41
2022-11-30T23:03:12.126Z,100792.94
2022-11-30T23:05:40.055Z,100791.22
2022-11-30T23:08:08.047Z,100786.06
2022-11-30T23:10:36.018Z,100788.63
2022-11-30T23:13:04.187Z,100784.91
2022-11-30T23:15:32.032Z,100789.16
2022-11-30T23:17:59.915Z,100783.88
2022-11-30T23:20:28.001Z,100791.75
2022-11-30T23:22:55.880Z,100784.69
2022-11-30T23:25:25.278Z,100786.53
2022-11-30T23:27:53.977Z,100787.47
2022-11-30T23:30:21.734Z,100784.03
2022-11-30T23:32:49.475Z,100792.16
2022-11-30T23:35:17.144Z,100786.00
2022-11-30T23:37:45.338Z,100790.34
2022-11-30T23:40:13.053Z,100786.69
2022-11-30T23:42:41.025Z,100790.22
2022-11-30T23:45:08.755Z,100785.75
2022-11-30T23:47:36.426Z,100782.25
2022-11-30T23:50:04.444Z,100776.03
2022-11-30T23:52:32.151Z,100784.91
2022-11-30T23:54:59.807Z,100785.75
2022-11-30T23:57:27.522Z,100788.34
2022-11-30T23:59:55.244Z,100783.97
